LiveATC.Net - Listen to live air traffic control over the Internet! Contact LiveATC.net for advertising information

Find LiveATC Audio Streams


Airport/ARTCC Code

Frequency
(e.g., 124.400, 128.75)
Site-wide search

Browse LiveATC Feeds
LiveATC Coverage Map
Top 50 LiveATC Feeds
Bad Weather Areas

LiveATC FAQ
Offer a LiveATC Feed
Contact LiveATC.net
Press Inquiries

LiveATC on iPhone
LiveATC on Android

LiveATC Mobile
(Mobile browser)

ATC Audio Archives
Interesting Recordings

LiveATC Forums

Home Page
About LiveATC.net
Make a Donation
LiveATC Bookstore

Terms of Use
Privacy Policy

ATC/Radar Sites
U.S. ARTCC Freqs
Canadian Air Freqs

AIRMETs/SIGMETs

FAA Airport Status
Nat'l Airspace Status
Arrival Demand Charts


Server Software By:
Icecast.org
Liquidsoap


Current Potentially Bad Weather Airports
(updated every 30 minutes - sorted alphabetically by ICAO code)



This page lists LiveATC.net airport areas that may be interesting to listen to because of challenging flying (weather) conditions. Challenging weather conditions include low ceilings, limited visibility, high or gusty winds, or thunderstorms. This is an evolving new feature and comments are welcome.

Updated: Tue Apr 28 00:10:01 UTC 2015
Click on airport name to go to that airport area's feeds.

BIKF Twr/App/Radar
WX MAP UNAVAILABLEBIKF 272330Z 02024G34KT 9999 FEW019 BKN032 01/M03 Q1014
BIRK Gnd/Twr/App/Misc
WX MAP UNAVAILABLEBIRK 272300Z 02028G42KT 9999 FEW025 01/M05 Q1011
CYQM Gnd/Twr/Center/Misc
cyqmCYQM 272300Z 02017KT 8SM -DZ OVC006 01/00 A2956 RMK SF8 SLP011
CYYT Gnd/Twr/Gander Center
WX MAP UNAVAILABLECYYT 272300Z 03016G22KT 2SM -FZRA BR OVC002 00/00 A2956 RMK SF8 PRESFR SLP015
EFKU Tower/Approach
WX MAP UNAVAILABLEEFKU 272350Z AUTO VRB01KT 9999 -RA OVC005 05/05 Q1002
EIKN Gnd/Twr/App
WX MAP UNAVAILABLEEIKN 271800Z 28022G32KT 9999 FEW018CB SCT023 04/M00 Q1008 NOSIG
KAMA Gnd/Twr/App
kamaKAMA 272353Z 01027G34KT 2 1/2SM -RA BR BKN007 BKN015 OVC022 04/03 A3005 RMK AO2 PK WND 01034/2333 SFC VIS 4 SLP171 P0001 60014 T00440033 10056 20033 53017
KBTR/KHZR/L38 Del/Gnd/Twr/App/CTAF
khzrKHZR 272335Z AUTO 12006KT 10SM SCT120 18/16 A2969 RMK AO2 LTG DSNT E AND NW P0001 T01760161
KCLL Gnd/Twr/App
kcllKCLL 272353Z 05006KT 10SM VCTS SCT030 SCT038 BKN050 24/21 A2967 RMK AO2 LTG DSNT SE SLP044 T02440206 10289 20244 53006
KDAL Tower
kdalKDAL 272356Z 32016G24KT 1 1/2SM R13L/6000VP6000FT +TSRA BR FEW015 BKN028 OVC035 18/16 A2976 RMK AO2 OCNL LTGICCG OHD TS OHD MOV E P0005 T01780156
KDFW Tower (East)
kdfwKDFW 272355Z 36013KT 2SM TSRA BR BKN009 BKN024 OVC033 16/16 A2976 RMK AO2 SFC VIS 2 1/2 TS N-OHD-S MOV NE P0001 T01610156
KDTO Gnd/Twr
kdtoKDTO 272353Z 02016KT 9SM -RA SCT060 OVC090 15/14 A2978 RMK AO2 LTG DSNT NE TSB2258E20 SLP081 P0016 60016 T01500144 10200 20150 50007
KFTW Clearance/Gnd/Twr
kftwKFTW 272353Z 01012KT 5SM -RA BR FEW008 BKN100 OVC120 17/16 A2976 RMK AO2 LTG DSNT E AND SE SLP073 P0008 60060 T01720161 10206 20167 53013
KGYI Ground/Tower
kgyiKGYI 272355Z AUTO 30015G22KT 10SM -RA OVC035 16/15 A2985 RMK AO2 LTG DSNT S AND SW T01610148 10190 20161
KHDC De/Gnd/Twr/App/ZHU
khdcKHDC 272355Z AUTO 26018G26KT VCTS SCT013 SCT080 OVC095 19/16 A2988 RMK AO2 LTG DSNT ALQS
KHWO Twr/CTAF/App
khwoKHWO 272353Z 14011KT 10SM TS FEW047 BKN060 BKN075 24/21 A2981 RMK AO2 LTG DSNT NE AND E TSE07B49 SLP094 60121 T02440206 10350 20228 $
KMLC CTAF/ZFW
kmlcKMLC 272353Z AUTO 04007KT 360V060 10SM VCTS OVC065 17/07 A2989 RMK AO2 LTG DSNT N AND NW RAB2256E14 SLP116 P0000 60000 T01670067 10194 20167 53010
KOPF ATIS
kopfKOPF 272353Z 00000KT 10SM TS BKN050 26/21 A2981 RMK AO2 LTG DSNT NE TSE01B48 SLP096 60006 T02560211 10344 20228 53014
KRBD Gnd/Twr
krbdKRBD 272353Z AUTO 36007KT 5SM TSRA FEW026 BKN031 OVC046 18/15 A2972 RMK AO2 LTG DSNT S AND SW RAB32 TSB53 SLP060 P0002 60002 T01830150 10206 20183 53002
KRVS Tower
krvsKRVS 272353Z 2 1/2SM RA BR OVC080 11/10 A2999 RMK AO2 SLP160 P0011 60024 T01060100 10172 20106 53014 $
KTKI Del/Gnd/Twr
ktkiKTKI 272353Z 05008KT 10SM BKN046 BKN075 OVC120 18/14 A2974 RMK AO2 LTG DSNT N AND NW RAB23E39 SLP073 P0000 60000 T01830139 10206 20183 56010
KTMB Del/Gnd/Twr
ktmbKTMB 272353Z 21004KT 10SM SCT070 31/23 A2980 RMK AO2 LTG DSNT N SLP090 60000 T03060228 10344 20306 53012 $
LKAA FIR (High)
WX MAP UNAVAILABLELKPR 272343Z 33009KT 9999 BKN003 OVC004 10/09 Q1002 RMK REG QNH 0998
PASC CTAF/Unicom/AFIS/App
WX MAP UNAVAILABLEPASC 272353Z 26004KT 1SM -SN BR OVC003 M10/M12 A2997 RMK AO2 SLP152 P0000 60000 T11001122 11100 21150 56003 RVRNO
TNCA Twr/Apron/FIR
WX MAP UNAVAILABLETNCA 272300Z 06021G31KT 9000 FEW019 28/25 Q1006 A2972 NOSIG
UUEE Twr/App/Radar
WX MAP UNAVAILABLEUUEE 272330Z 08002MPS 0050 R07R/0250N R07L/0250N FG VV001 08/08 Q1012 R07R/000062 R07L/000062 NOSIG
UUWW Gnd/Twr/App/ACC
WX MAP UNAVAILABLEUUWW 272330Z 00000MPS 0150 0100SW R24/P2000D BCFG BKN000 08/08 Q1013 R24/290050 TEMPO 0200 FG VV001 RMK QBB020